Time;durP1;ratioP1;P1;durP2;ratioP2;P2;SDS_P1;SDS_P2;PMS_P1;PMS_P2;Temp;Humidity;BMP_temperature;BMP_pressure;BME280_temperature;BME280_humidity;BME280_pressure;Samples;Min_cycle;Max_cycle;Signal;HPM_P1;HPM_P2
2023/04/16 00:02:11;;;;;;;27.42;11.90;;;;;;;;;;5051739;28;20396;-81
2023/04/16 00:04:37;;;;;;;24.75;11.52;;;;;;;;;;5052073;28;20439;-82
2023/04/16 00:07:03;;;;;;;25.08;11.93;;;;;;;;;;5031100;28;20438;-82
2023/04/16 00:09:29;;;;;;;24.17;12.10;;;;;;;;;;5048304;28;20525;-82
2023/04/16 00:11:55;;;;;;;23.65;12.15;;;;;;;;;;5036811;28;20431;-82
2023/04/16 00:14:21;;;;;;;24.55;12.05;;;;;;;;;;5031620;28;20417;-82
2023/04/16 00:16:47;;;;;;;24.70;12.77;;;;;;;;;;5050895;28;20434;-81
2023/04/16 00:19:13;;;;;;;26.20;12.43;;;;;;;;;;5048796;28;20409;-87
2023/04/16 00:21:40;;;;;;;27.60;13.18;;;;;;;;;;5033062;28;20408;-87
2023/04/16 00:24:06;;;;;;;26.67;13.23;;;;;;;;;;5036271;28;20410;-87
2023/04/16 00:26:32;;;;;;;29.10;13.85;;;;;;;;;;5025374;28;20431;-87
2023/04/16 00:28:58;;;;;;;24.20;13.30;;;;;;;;;;5041443;28;20413;-86
2023/04/16 00:31:31;;;;;;;26.85;13.60;;;;;;;;;;5031965;28;20413;-86
2023/04/16 00:33:58;;;;;;;27.25;13.95;;;;;;;;;;5032720;28;20404;-87
2023/04/16 00:36:25;;;;;;;30.63;14.00;;;;;;;;;;5050651;28;20420;-81
2023/04/16 00:38:52;;;;;;;26.98;14.07;;;;;;;;;;5055632;28;20408;-82
2023/04/16 00:41:18;;;;;;;28.48;14.55;;;;;;;;;;5051650;28;20421;-82
2023/04/16 00:43:44;;;;;;;29.98;14.50;;;;;;;;;;5036161;28;20425;-82
2023/04/16 00:46:11;;;;;;;26.95;14.70;;;;;;;;;;5045863;28;20467;-82
2023/04/16 00:48:38;;;;;;;29.37;15.13;;;;;;;;;;5055927;28;20407;-82
2023/04/16 00:51:04;;;;;;;29.05;15.32;;;;;;;;;;5054814;28;20441;-82
2023/04/16 00:53:31;;;;;;;31.48;15.15;;;;;;;;;;5055315;28;20416;-82
2023/04/16 00:55:57;;;;;;;27.63;15.30;;;;;;;;;;5054548;28;20478;-82
2023/04/16 00:58:23;;;;;;;28.53;14.87;;;;;;;;;;5036740;28;20428;-82
2023/04/16 01:00:50;;;;;;;30.73;15.52;;;;;;;;;;5041456;28;20415;-87
2023/04/16 01:03:17;;;;;;;26.65;15.27;;;;;;;;;;5054998;28;20486;-87
2023/04/16 01:05:44;;;;;;;29.45;16.00;;;;;;;;;;5056360;28;20435;-87
2023/04/16 01:08:20;;;;;;;26.57;15.50;;;;;;;;;;5028235;28;20485;-82
2023/04/16 01:10:46;;;;;;;28.38;16.35;;;;;;;;;;5044346;28;20424;-81
2023/04/16 01:13:12;;;;;;;30.50;15.73;;;;;;;;;;5038204;28;20407;-81
2023/04/16 01:15:38;;;;;;;30.25;16.08;;;;;;;;;;5052126;28;20432;-81
2023/04/16 01:18:17;;;;;;;29.00;15.88;;;;;;;;;;5038659;28;20438;-81
2023/04/16 01:20:43;;;;;;;31.53;16.33;;;;;;;;;;5045389;28;20563;-81
2023/04/16 01:23:10;;;;;;;28.15;16.65;;;;;;;;;;5034991;28;20412;-82
2023/04/16 01:25:36;;;;;;;27.23;15.70;;;;;;;;;;5029005;28;20444;-87
2023/04/16 01:28:02;;;;;;;29.95;16.27;;;;;;;;;;5038391;28;20408;-87
2023/04/16 01:30:28;;;;;;;29.27;16.13;;;;;;;;;;5031922;28;20524;-87
2023/04/16 01:32:55;;;;;;;29.57;16.70;;;;;;;;;;5054832;28;20460;-88
2023/04/16 01:35:21;;;;;;;28.60;16.77;;;;;;;;;;5037762;28;20589;-87
2023/04/16 01:37:47;;;;;;;27.52;17.10;;;;;;;;;;5035519;28;20422;-86
2023/04/16 01:40:13;;;;;;;29.88;17.08;;;;;;;;;;5041314;28;20408;-87
2023/04/16 01:42:39;;;;;;;31.30;17.42;;;;;;;;;;5028815;28;20422;-82
2023/04/16 01:45:05;;;;;;;29.98;16.90;;;;;;;;;;5029186;28;20420;-81
2023/04/16 01:47:31;;;;;;;31.17;17.58;;;;;;;;;;5031723;28;20457;-82
2023/04/16 01:49:58;;;;;;;26.92;17.23;;;;;;;;;;5026194;28;20458;-82
2023/04/16 01:52:24;;;;;;;31.60;17.80;;;;;;;;;;5045208;28;20514;-81
2023/04/16 01:54:50;;;;;;;30.45;17.30;;;;;;;;;;5035826;28;20462;-82
2023/04/16 01:57:17;;;;;;;31.77;17.90;;;;;;;;;;5022702;28;20419;-81
2023/04/16 01:59:43;;;;;;;29.88;18.90;;;;;;;;;;5048982;28;20413;-82
2023/04/16 02:02:10;;;;;;;30.20;18.05;;;;;;;;;;5044613;28;20416;-82
2023/04/16 02:04:37;;;;;;;30.05;19.00;;;;;;;;;;5036433;28;20442;-82
2023/04/16 02:07:04;;;;;;;33.85;19.30;;;;;;;;;;5053589;28;20428;-82
2023/04/16 02:09:30;;;;;;;33.03;19.08;;;;;;;;;;5045565;28;20424;-82
2023/04/16 02:11:56;;;;;;;31.63;19.48;;;;;;;;;;5053138;28;20412;-83
2023/04/16 02:14:24;;;;;;;33.13;19.85;;;;;;;;;;5044351;28;20422;-83
2023/04/16 02:16:50;;;;;;;32.60;19.77;;;;;;;;;;5027686;28;20523;-83
2023/04/16 02:19:20;;;;;;;33.60;20.05;;;;;;;;;;5050287;28;20443;-83
2023/04/16 02:21:47;;;;;;;32.65;19.83;;;;;;;;;;5028959;28;20510;-82
2023/04/16 02:24:13;;;;;;;32.35;20.30;;;;;;;;;;5044894;28;20486;-83
2023/04/16 02:26:39;;;;;;;31.23;20.58;;;;;;;;;;5027597;28;20443;-83
2023/04/16 02:29:05;;;;;;;34.53;20.83;;;;;;;;;;5028394;28;20412;-83
2023/04/16 02:31:31;;;;;;;33.70;20.77;;;;;;;;;;5027008;28;20431;-83
2023/04/16 02:33:57;;;;;;;32.92;21.58;;;;;;;;;;5029843;28;20415;-83
2023/04/16 02:36:23;;;;;;;34.78;22.05;;;;;;;;;;5047375;28;20416;-84
2023/04/16 02:38:49;;;;;;;33.85;21.83;;;;;;;;;;5025820;28;20424;-84
2023/04/16 02:41:15;;;;;;;37.92;21.85;;;;;;;;;;5049332;28;20404;-84
2023/04/16 02:43:41;;;;;;;36.08;21.70;;;;;;;;;;5033907;28;20419;-83
2023/04/16 02:46:08;;;;;;;32.90;21.83;;;;;;;;;;5029883;28;20477;-84
2023/04/16 02:48:34;;;;;;;35.92;22.10;;;;;;;;;;5028546;28;20412;-88
2023/04/16 02:51:00;;;;;;;35.17;22.92;;;;;;;;;;5029656;28;20428;-88
2023/04/16 02:53:26;;;;;;;37.50;23.77;;;;;;;;;;5030811;28;20503;-88
2023/04/16 02:55:52;;;;;;;37.55;23.27;;;;;;;;;;5024831;28;20482;-88
2023/04/16 02:58:19;;;;;;;36.60;23.10;;;;;;;;;;5053211;28;20419;-87
2023/04/16 03:00:45;;;;;;;37.55;22.92;;;;;;;;;;5040726;28;20417;-88
2023/04/16 03:03:11;;;;;;;37.42;22.95;;;;;;;;;;5029152;28;20516;-87
2023/04/16 03:05:37;;;;;;;39.50;23.88;;;;;;;;;;5034931;28;20427;-87
2023/04/16 03:08:04;;;;;;;36.13;24.33;;;;;;;;;;5030532;28;20408;-88
2023/04/16 03:10:30;;;;;;;38.30;23.60;;;;;;;;;;5049812;28;20419;-88
2023/04/16 03:12:56;;;;;;;33.22;22.48;;;;;;;;;;5044129;28;20455;-88
2023/04/16 03:15:22;;;;;;;35.25;23.58;;;;;;;;;;5032990;28;20432;-88
2023/04/16 03:17:48;;;;;;;34.07;23.53;;;;;;;;;;5029942;28;20522;-88
2023/04/16 03:20:15;;;;;;;35.73;22.70;;;;;;;;;;5052610;28;20501;-88
2023/04/16 03:22:42;;;;;;;34.13;23.52;;;;;;;;;;5049079;28;20492;-88
2023/04/16 03:25:08;;;;;;;35.37;23.03;;;;;;;;;;5033165;28;20414;-88
2023/04/16 03:27:34;;;;;;;35.47;23.60;;;;;;;;;;5067640;28;20420;-88
2023/04/16 03:30:01;;;;;;;34.50;22.95;;;;;;;;;;5036100;28;20428;-88
2023/04/16 03:32:27;;;;;;;35.15;23.00;;;;;;;;;;5017751;28;20418;-88
2023/04/16 03:34:54;;;;;;;34.25;23.85;;;;;;;;;;5016200;28;20443;-88
2023/04/16 03:37:21;;;;;;;34.78;23.50;;;;;;;;;;5051256;28;20444;-88
2023/04/16 03:39:47;;;;;;;35.58;23.80;;;;;;;;;;5035917;28;20419;-84
2023/04/16 03:42:13;;;;;;;35.10;24.27;;;;;;;;;;5052141;28;20491;-84
2023/04/16 03:44:40;;;;;;;36.47;24.23;;;;;;;;;;5035476;28;20404;-84
2023/04/16 03:47:06;;;;;;;37.25;24.77;;;;;;;;;;5035753;28;20407;-82
2023/04/16 03:49:32;;;;;;;35.35;25.17;;;;;;;;;;5023661;28;20459;-81
2023/04/16 03:51:58;;;;;;;36.63;24.13;;;;;;;;;;5029061;28;20431;-84
2023/04/16 03:54:24;;;;;;;38.00;25.27;;;;;;;;;;5053062;28;20396;-86
2023/04/16 03:56:50;;;;;;;35.75;24.90;;;;;;;;;;5052187;28;20432;-86
2023/04/16 03:59:17;;;;;;;37.97;25.25;;;;;;;;;;5052239;28;20430;-86
2023/04/16 04:01:43;;;;;;;37.60;25.42;;;;;;;;;;5034064;28;20423;-86
2023/04/16 04:04:09;;;;;;;37.73;26.13;;;;;;;;;;5034499;28;20539;-87
2023/04/16 04:06:35;;;;;;;36.17;24.88;;;;;;;;;;5035080;28;20427;-86
2023/04/16 04:09:01;;;;;;;39.63;26.23;;;;;;;;;;5035245;28;20553;-86
2023/04/16 04:11:27;;;;;;;39.58;25.88;;;;;;;;;;5050980;28;20434;-81
2023/04/16 04:13:53;;;;;;;40.67;26.92;;;;;;;;;;5035532;28;20416;-82
2023/04/16 04:16:19;;;;;;;40.47;26.45;;;;;;;;;;5050872;28;20442;-82
2023/04/16 04:18:46;;;;;;;41.47;26.65;;;;;;;;;;5034551;28;20423;-81
2023/04/16 04:21:11;;;;;;;42.70;27.27;;;;;;;;;;5025074;28;20420;-81
2023/04/16 04:23:38;;;;;;;43.07;27.40;;;;;;;;;;5051590;28;20509;-82
2023/04/16 04:26:06;;;;;;;40.95;27.42;;;;;;;;;;5035389;28;20415;-82
2023/04/16 04:28:32;;;;;;;43.47;27.33;;;;;;;;;;5026141;28;20464;-82
2023/04/16 04:30:58;;;;;;;43.87;28.33;;;;;;;;;;5039376;28;20508;-84
2023/04/16 04:33:25;;;;;;;40.08;27.45;;;;;;;;;;5031685;28;20480;-84
2023/04/16 04:35:51;;;;;;;41.83;27.70;;;;;;;;;;5032969;28;20437;-82
2023/04/16 04:38:18;;;;;;;41.15;28.35;;;;;;;;;;5048988;28;20407;-82
2023/04/16 04:40:48;;;;;;;42.35;27.55;;;;;;;;;;5034312;28;20431;-81
2023/04/16 04:43:14;;;;;;;42.95;27.50;;;;;;;;;;5015347;28;20417;-81
2023/04/16 04:45:40;;;;;;;43.92;28.80;;;;;;;;;;5041944;28;20456;-86
2023/04/16 04:48:06;;;;;;;44.15;28.05;;;;;;;;;;5033766;28;20413;-86
2023/04/16 04:50:32;;;;;;;43.75;28.15;;;;;;;;;;5051150;28;20452;-86
2023/04/16 04:52:58;;;;;;;43.65;28.40;;;;;;;;;;5035326;28;20431;-86
2023/04/16 04:55:24;;;;;;;45.28;27.40;;;;;;;;;;5019942;28;20436;-86
2023/04/16 04:57:50;;;;;;;42.92;28.13;;;;;;;;;;5025687;28;20419;-88
2023/04/16 05:00:16;;;;;;;50.08;29.70;;;;;;;;;;5034626;28;20404;-88
2023/04/16 05:02:42;;;;;;;47.70;29.43;;;;;;;;;;5034626;28;20499;-84
2023/04/16 05:05:08;;;;;;;48.58;30.05;;;;;;;;;;5051072;28;20432;-84
2023/04/16 05:07:35;;;;;;;47.55;28.83;;;;;;;;;;5031358;28;20509;-82
2023/04/16 05:10:01;;;;;;;46.92;29.55;;;;;;;;;;5028712;28;20427;-82
2023/04/16 05:12:27;;;;;;;49.78;29.73;;;;;;;;;;5049403;28;20499;-82
2023/04/16 05:14:53;;;;;;;47.45;28.58;;;;;;;;;;5033578;28;20541;-82
2023/04/16 05:17:19;;;;;;;46.95;28.90;;;;;;;;;;5016486;28;20429;-83
2023/04/16 05:19:45;;;;;;;47.45;28.73;;;;;;;;;;5031320;28;20719;-86
2023/04/16 05:22:11;;;;;;;43.35;28.85;;;;;;;;;;5037013;28;20408;-87
2023/04/16 05:24:37;;;;;;;45.28;28.42;;;;;;;;;;5037941;28;20431;-87
2023/04/16 05:27:03;;;;;;;40.97;27.77;;;;;;;;;;5054676;28;20411;-87
2023/04/16 05:29:29;;;;;;;40.88;27.63;;;;;;;;;;5046394;28;20463;-86
2023/04/16 05:31:56;;;;;;;42.28;28.58;;;;;;;;;;5038426;28;20412;-88
2023/04/16 05:34:22;;;;;;;42.08;28.45;;;;;;;;;;5034778;28;20414;-84
2023/04/16 05:36:48;;;;;;;40.58;27.35;;;;;;;;;;5035734;28;20439;-83
2023/04/16 05:39:16;;;;;;;41.72;28.02;;;;;;;;;;5021087;28;20480;-83
2023/04/16 05:41:42;;;;;;;40.10;27.65;;;;;;;;;;5050308;28;20439;-83
2023/04/16 05:44:08;;;;;;;38.40;27.40;;;;;;;;;;5034694;28;20401;-82
2023/04/16 05:46:34;;;;;;;41.40;28.48;;;;;;;;;;5036502;28;20547;-82
2023/04/16 05:49:00;;;;;;;39.87;28.37;;;;;;;;;;5037842;28;20494;-83
2023/04/16 05:51:26;;;;;;;36.67;27.30;;;;;;;;;;5028915;28;20439;-82
2023/04/16 05:53:55;;;;;;;38.13;27.73;;;;;;;;;;5029725;28;20434;-83
2023/04/16 05:56:22;;;;;;;36.40;27.15;;;;;;;;;;5027022;28;20431;-84
2023/04/16 05:58:48;;;;;;;35.03;27.00;;;;;;;;;;5029369;28;20415;-83
2023/04/16 06:01:17;;;;;;;35.30;27.60;;;;;;;;;;5036505;28;20448;-83
2023/04/16 06:03:44;;;;;;;36.22;26.95;;;;;;;;;;5046798;28;20440;-83
2023/04/16 06:06:10;;;;;;;35.80;26.88;;;;;;;;;;5037451;28;20439;-83
2023/04/16 06:08:36;;;;;;;37.83;27.52;;;;;;;;;;5053743;28;20453;-84
2023/04/16 06:11:03;;;;;;;37.75;26.95;;;;;;;;;;5054089;28;20399;-84
2023/04/16 06:13:29;;;;;;;35.37;26.90;;;;;;;;;;5050889;28;20503;-84
2023/04/16 06:15:55;;;;;;;36.35;27.80;;;;;;;;;;5034186;28;20434;-84
2023/04/16 06:18:21;;;;;;;34.85;27.17;;;;;;;;;;5033911;28;20417;-84
2023/04/16 06:20:47;;;;;;;35.78;27.35;;;;;;;;;;5017282;28;20409;-84
2023/04/16 06:23:13;;;;;;;36.17;26.75;;;;;;;;;;5032173;28;20455;-82
2023/04/16 06:25:39;;;;;;;35.50;26.60;;;;;;;;;;5031125;28;20439;-83
2023/04/16 06:28:05;;;;;;;37.10;26.98;;;;;;;;;;5037312;28;20454;-84
2023/04/16 06:30:31;;;;;;;35.00;27.17;;;;;;;;;;5034035;28;20644;-83
2023/04/16 06:32:57;;;;;;;39.35;27.55;;;;;;;;;;5052847;28;20419;-83
2023/04/16 06:35:23;;;;;;;36.92;26.80;;;;;;;;;;5053286;28;20435;-83
2023/04/16 06:37:49;;;;;;;37.90;27.37;;;;;;;;;;5051730;28;20421;-84
2023/04/16 06:40:15;;;;;;;38.35;27.20;;;;;;;;;;5066114;28;20411;-81
2023/04/16 06:42:42;;;;;;;37.42;27.55;;;;;;;;;;5052820;28;20529;-80
2023/04/16 06:45:08;;;;;;;35.57;26.67;;;;;;;;;;5053243;28;20407;-83
2023/04/16 06:47:34;;;;;;;34.90;26.90;;;;;;;;;;5049829;28;20535;-83
2023/04/16 06:50:00;;;;;;;36.28;27.58;;;;;;;;;;5033639;28;20464;-84
2023/04/16 06:52:26;;;;;;;37.22;27.45;;;;;;;;;;5027362;28;20418;-84
2023/04/16 06:54:52;;;;;;;35.88;27.63;;;;;;;;;;5033162;28;20525;-81
2023/04/16 06:57:18;;;;;;;37.20;27.92;;;;;;;;;;5052692;28;20511;-81
2023/04/16 06:59:44;;;;;;;35.28;27.00;;;;;;;;;;5053110;28;20406;-87
2023/04/16 07:02:10;;;;;;;37.95;27.92;;;;;;;;;;5028992;28;20542;-87
2023/04/16 07:04:36;;;;;;;37.30;27.02;;;;;;;;;;5035642;28;20461;-86
2023/04/16 07:07:02;;;;;;;36.90;28.00;;;;;;;;;;5036056;28;20454;-86
2023/04/16 07:09:28;;;;;;;37.92;27.88;;;;;;;;;;5048871;28;20464;-87
2023/04/16 07:11:54;;;;;;;37.10;28.17;;;;;;;;;;5029349;28;20468;-86
2023/04/16 07:14:20;;;;;;;37.78;27.85;;;;;;;;;;5038307;28;20448;-86
2023/04/16 07:16:46;;;;;;;35.10;27.27;;;;;;;;;;5033910;28;20501;-86
2023/04/16 07:19:12;;;;;;;37.28;27.38;;;;;;;;;;5027974;28;20426;-85
2023/04/16 07:21:40;;;;;;;39.22;27.52;;;;;;;;;;5033284;28;20488;-85
2023/04/16 07:24:06;;;;;;;34.85;27.33;;;;;;;;;;5050917;28;20415;-79
2023/04/16 07:26:32;;;;;;;38.25;26.90;;;;;;;;;;5035489;28;20416;-80
2023/04/16 07:28:59;;;;;;;37.08;26.98;;;;;;;;;;5036214;28;20431;-80
2023/04/16 07:31:25;;;;;;;36.85;26.73;;;;;;;;;;5052315;28;20454;-84
2023/04/16 07:33:51;;;;;;;35.58;26.50;;;;;;;;;;5052802;28;20400;-84
2023/04/16 07:36:17;;;;;;;33.33;25.70;;;;;;;;;;5035500;28;20493;-84
2023/04/16 07:38:43;;;;;;;33.90;26.37;;;;;;;;;;5035614;28;20416;-80
2023/04/16 07:41:09;;;;;;;35.27;26.40;;;;;;;;;;5035142;28;20465;-80
2023/04/16 07:43:35;;;;;;;32.50;25.08;;;;;;;;;;5052269;28;20491;-80
2023/04/16 07:46:01;;;;;;;34.20;25.90;;;;;;;;;;5052434;28;20404;-80
2023/04/16 07:48:27;;;;;;;34.70;24.83;;;;;;;;;;5035273;28;20500;-81
2023/04/16 07:50:53;;;;;;;34.13;25.33;;;;;;;;;;5053007;28;20491;-81
2023/04/16 07:53:19;;;;;;;32.53;24.85;;;;;;;;;;5028187;28;20409;-81
2023/04/16 07:55:45;;;;;;;32.15;24.77;;;;;;;;;;5033266;28;20440;-81
2023/04/16 07:58:11;;;;;;;34.10;25.17;;;;;;;;;;5047999;28;20438;-81
2023/04/16 08:00:38;;;;;;;31.33;24.48;;;;;;;;;;5042232;28;20454;-82
2023/04/16 08:03:04;;;;;;;32.83;24.65;;;;;;;;;;5051483;28;20420;-81
2023/04/16 08:05:30;;;;;;;37.00;26.13;;;;;;;;;;5071774;28;20434;-84
2023/04/16 08:07:56;;;;;;;33.38;25.27;;;;;;;;;;5020371;28;20404;-85
2023/04/16 08:10:22;;;;;;;35.75;25.88;;;;;;;;;;5052133;28;20419;-85
2023/04/16 08:12:48;;;;;;;32.25;24.60;;;;;;;;;;5052047;28;20415;-85
2023/04/16 08:15:14;;;;;;;33.83;25.83;;;;;;;;;;5054508;28;20479;-84
2023/04/16 08:20:09;;;;;;;35.13;26.00;;;;;;;;;;5071073;28;20469;-83
2023/04/16 08:22:35;;;;;;;34.90;26.08;;;;;;;;;;5038449;28;20495;-80
2023/04/16 08:25:01;;;;;;;34.35;26.35;;;;;;;;;;5033246;28;20458;-81
2023/04/16 08:27:27;;;;;;;35.63;26.17;;;;;;;;;;5040554;28;20580;-81
2023/04/16 08:29:53;;;;;;;35.03;25.97;;;;;;;;;;5038885;28;20434;-81
2023/04/16 08:32:19;;;;;;;32.40;25.58;;;;;;;;;;5065225;28;20427;-81
2023/04/16 08:34:45;;;;;;;32.87;25.63;;;;;;;;;;5034728;28;20415;-86
2023/04/16 08:37:11;;;;;;;35.23;25.70;;;;;;;;;;5031119;28;20440;-86
2023/04/16 08:39:37;;;;;;;34.28;24.85;;;;;;;;;;5038073;28;20435;-83
2023/04/16 08:42:11;;;;;;;35.33;25.65;;;;;;;;;;5033559;28;20424;-83
2023/04/16 08:44:40;;;;;;;33.60;25.70;;;;;;;;;;5056997;28;20463;-83
2023/04/16 08:47:08;;;;;;;38.10;26.42;;;;;;;;;;5054642;28;20559;-83
2023/04/16 08:49:36;;;;;;;36.28;26.50;;;;;;;;;;5074818;28;20511;-83
2023/04/16 08:52:03;;;;;;;37.40;27.63;;;;;;;;;;5034985;28;20422;-83
2023/04/16 08:54:42;;;;;;;37.63;27.90;;;;;;;;;;5053238;28;20440;-81
2023/04/16 08:57:10;;;;;;;38.20;27.25;;;;;;;;;;5042576;28;20441;-81
2023/04/16 08:59:37;;;;;;;37.73;27.67;;;;;;;;;;5075674;28;20474;-81
2023/04/16 09:02:05;;;;;;;38.47;27.85;;;;;;;;;;5057918;28;20484;-81
2023/04/16 09:04:32;;;;;;;36.08;27.05;;;;;;;;;;5073968;28;20414;-86
2023/04/16 09:06:58;;;;;;;39.95;27.70;;;;;;;;;;5058458;28;20394;-86
2023/04/16 09:09:27;;;;;;;37.20;27.15;;;;;;;;;;5041872;28;20402;-86
2023/04/16 09:11:54;;;;;;;38.33;28.35;;;;;;;;;;5042435;28;20423;-84
2023/04/16 09:14:21;;;;;;;37.83;27.77;;;;;;;;;;5058274;28;20403;-83
2023/04/16 09:16:47;;;;;;;43.83;28.58;;;;;;;;;;5057476;28;20426;-84
2023/04/16 09:19:14;;;;;;;40.13;27.55;;;;;;;;;;5061317;28;20436;-84
2023/04/16 09:21:41;;;;;;;38.20;28.33;;;;;;;;;;5059221;28;20415;-84
2023/04/16 09:24:07;;;;;;;49.25;29.45;;;;;;;;;;5058926;28;20509;-83
2023/04/16 09:26:34;;;;;;;38.83;28.92;;;;;;;;;;5041272;28;20426;-84
2023/04/16 09:29:00;;;;;;;39.78;28.90;;;;;;;;;;5041043;28;20541;-87
2023/04/16 09:31:28;;;;;;;36.13;28.67;;;;;;;;;;5041714;28;20476;-88
2023/04/16 09:34:07;;;;;;;37.17;28.55;;;;;;;;;;5045617;28;20432;-89
2023/04/16 09:36:33;;;;;;;36.42;27.85;;;;;;;;;;5058331;28;20441;-89
2023/04/16 09:39:00;;;;;;;36.55;27.50;;;;;;;;;;5058553;28;20434;-89
2023/04/16 09:41:27;;;;;;;40.43;27.17;;;;;;;;;;5058145;28;20534;-88
2023/04/16 09:43:54;;;;;;;38.70;28.08;;;;;;;;;;5062714;28;20407;-88
2023/04/16 09:46:20;;;;;;;37.97;27.83;;;;;;;;;;5056396;28;20419;-88
2023/04/16 09:48:46;;;;;;;38.47;26.92;;;;;;;;;;5023753;28;20416;-89
2023/04/16 09:51:12;;;;;;;34.42;26.13;;;;;;;;;;5049977;28;20428;-88
2023/04/16 09:53:38;;;;;;;34.97;26.33;;;;;;;;;;5038229;28;20494;-89
2023/04/16 09:56:05;;;;;;;36.80;25.90;;;;;;;;;;5059043;28;20438;-88
2023/04/16 09:58:32;;;;;;;34.38;26.02;;;;;;;;;;5056378;28;20420;-89
2023/04/16 10:01:01;;;;;;;32.35;24.65;;;;;;;;;;5063785;28;20399;-89
2023/04/16 10:03:30;;;;;;;29.55;24.15;;;;;;;;;;5057618;28;20411;-89
2023/04/16 10:06:12;;;;;;;33.20;24.40;;;;;;;;;;5059790;28;20493;-88
2023/04/16 10:08:42;;;;;;;34.63;24.38;;;;;;;;;;5056430;28;20438;-89
2023/04/16 10:11:08;;;;;;;32.95;24.38;;;;;;;;;;5071899;28;20405;-88
2023/04/16 10:13:34;;;;;;;30.60;23.63;;;;;;;;;;5061416;28;20416;-89
2023/04/16 10:16:00;;;;;;;35.23;25.27;;;;;;;;;;5055667;28;20443;-89
2023/04/16 10:18:27;;;;;;;31.52;23.73;;;;;;;;;;5048699;28;20454;-83
2023/04/16 10:20:53;;;;;;;28.40;22.17;;;;;;;;;;5056338;28;20431;-82
2023/04/16 10:23:22;;;;;;;26.02;21.02;;;;;;;;;;5056469;28;20432;-82
2023/04/16 10:25:53;;;;;;;29.38;22.10;;;;;;;;;;5052814;28;20466;-83
2023/04/16 10:28:19;;;;;;;29.58;22.85;;;;;;;;;;5037517;28;20407;-89
2023/04/16 10:30:51;;;;;;;27.77;22.08;;;;;;;;;;5037580;28;20438;-89
2023/04/16 10:33:19;;;;;;;26.80;21.80;;;;;;;;;;5037549;28;20495;-88
2023/04/16 10:35:45;;;;;;;27.23;20.93;;;;;;;;;;5053001;28;20434;-85
2023/04/16 10:38:22;;;;;;;26.90;21.25;;;;;;;;;;5039819;28;20441;-84
2023/04/16 10:40:48;;;;;;;28.50;21.73;;;;;;;;;;5056094;28;20531;-84
2023/04/16 10:43:21;;;;;;;27.83;21.27;;;;;;;;;;5035590;28;20424;-85
2023/04/16 10:45:47;;;;;;;27.92;21.58;;;;;;;;;;5050836;28;20416;-84
2023/04/16 10:48:15;;;;;;;28.05;21.35;;;;;;;;;;5035319;28;20473;-85
2023/04/16 10:50:42;;;;;;;27.77;21.38;;;;;;;;;;5041634;28;20418;-85
2023/04/16 10:53:23;;;;;;;26.92;21.15;;;;;;;;;;5025479;28;20424;-83
2023/04/16 10:55:56;;;;;;;29.67;21.85;;;;;;;;;;5053178;28;20430;-83
2023/04/16 10:58:31;;;;;;;25.98;21.05;;;;;;;;;;5036344;28;20392;-83
2023/04/16 11:01:01;;;;;;;26.25;20.15;;;;;;;;;;5042192;28;20421;-83
2023/04/16 11:03:31;;;;;;;23.93;19.03;;;;;;;;;;5056769;28;20476;-83
2023/04/16 11:06:15;;;;;;;22.13;18.55;;;;;;;;;;5060801;28;20449;-84
2023/04/16 11:08:42;;;;;;;22.23;17.60;;;;;;;;;;5065472;28;20517;-83
2023/04/16 11:11:09;;;;;;;23.48;17.65;;;;;;;;;;5063315;28;20421;-83
2023/04/16 11:13:36;;;;;;;20.97;16.80;;;;;;;;;;5072645;28;20171;-83
2023/04/16 11:16:02;;;;;;;23.30;17.07;;;;;;;;;;5057048;28;20214;-83
2023/04/16 11:18:28;;;;;;;25.67;18.35;;;;;;;;;;5048019;28;20431;-83
2023/04/16 11:20:55;;;;;;;22.48;18.35;;;;;;;;;;5065533;28;20495;-83
2023/04/16 11:23:21;;;;;;;22.95;18.35;;;;;;;;;;5072789;28;20431;-82
2023/04/16 11:25:47;;;;;;;23.10;18.58;;;;;;;;;;5075342;28;20401;-83
2023/04/16 11:28:13;;;;;;;23.63;18.20;;;;;;;;;;5034812;28;20422;-83
2023/04/16 11:30:40;;;;;;;22.17;18.30;;;;;;;;;;5055761;28;20441;-82
2023/04/16 11:33:10;;;;;;;21.70;18.30;;;;;;;;;;5055589;28;20409;-83
2023/04/16 11:35:38;;;;;;;23.25;18.63;;;;;;;;;;5071933;28;20434;-82
2023/04/16 11:38:07;;;;;;;24.45;18.77;;;;;;;;;;5035864;28;20411;-83
2023/04/16 11:40:33;;;;;;;23.83;17.95;;;;;;;;;;5033907;28;20421;-83
2023/04/16 11:43:03;;;;;;;24.38;18.13;;;;;;;;;;5055243;28;20448;-83
2023/04/16 11:45:29;;;;;;;24.90;18.75;;;;;;;;;;5040660;28;20453;-83
2023/04/16 11:47:56;;;;;;;27.10;19.15;;;;;;;;;;5054334;28;20496;-83
2023/04/16 11:50:26;;;;;;;25.95;18.98;;;;;;;;;;5038060;28;20462;-82
2023/04/16 11:52:54;;;;;;;27.25;18.65;;;;;;;;;;5034981;28;20457;-83
2023/04/16 11:55:20;;;;;;;25.38;18.75;;;;;;;;;;5073098;28;20444;-83
2023/04/16 11:57:46;;;;;;;29.60;19.13;;;;;;;;;;5030543;28;20444;-85
2023/04/16 12:00:13;;;;;;;26.63;18.90;;;;;;;;;;5018988;28;20462;-85
2023/04/16 12:02:44;;;;;;;24.60;17.87;;;;;;;;;;5049179;28;20424;-85
2023/04/16 12:05:27;;;;;;;25.02;18.35;;;;;;;;;;5055116;28;20414;-85
2023/04/16 12:07:53;;;;;;;24.58;18.13;;;;;;;;;;5070267;28;20456;-85
2023/04/16 12:10:19;;;;;;;24.70;17.65;;;;;;;;;;5053834;28;20452;-85
2023/04/16 12:12:45;;;;;;;23.75;17.35;;;;;;;;;;5038511;28;20448;-85
2023/04/16 12:15:11;;;;;;;26.33;18.35;;;;;;;;;;5033702;28;20497;-83
2023/04/16 12:17:37;;;;;;;27.48;17.98;;;;;;;;;;5031201;28;20418;-83
2023/04/16 12:20:08;;;;;;;27.27;17.92;;;;;;;;;;5041999;28;20446;-83
2023/04/16 12:22:44;;;;;;;25.77;18.40;;;;;;;;;;5054125;28;20449;-83
2023/04/16 12:25:12;;;;;;;25.88;17.65;;;;;;;;;;5064174;28;20459;-83
2023/04/16 12:27:42;;;;;;;24.73;17.67;;;;;;;;;;5089540;28;20415;-82
2023/04/16 12:30:08;;;;;;;25.60;18.08;;;;;;;;;;5055061;28;20407;-83
2023/04/16 12:32:34;;;;;;;27.67;17.95;;;;;;;;;;5060307;28;20548;-83
2023/04/16 12:35:01;;;;;;;24.25;17.17;;;;;;;;;;5058814;28;20421;-83
2023/04/16 12:37:27;;;;;;;24.15;16.50;;;;;;;;;;5056633;28;20479;-83
2023/04/16 12:39:53;;;;;;;24.83;16.95;;;;;;;;;;5042198;28;20453;-83
2023/04/16 12:42:20;;;;;;;25.67;17.45;;;;;;;;;;5064759;28;20412;-83
2023/04/16 12:44:46;;;;;;;23.42;17.08;;;;;;;;;;5077841;28;20412;-83
2023/04/16 12:47:12;;;;;;;22.38;16.85;;;;;;;;;;5051130;28;21020;-82
2023/04/16 12:49:38;;;;;;;26.58;17.33;;;;;;;;;;5079746;28;20408;-89
2023/04/16 12:52:05;;;;;;;25.33;17.40;;;;;;;;;;5059519;28;20509;-88
2023/04/16 12:54:31;;;;;;;25.33;17.60;;;;;;;;;;5057028;28;20422;-89
2023/04/16 12:56:57;;;;;;;23.70;16.90;;;;;;;;;;5058905;28;20422;-90
2023/04/16 12:59:24;;;;;;;24.35;16.98;;;;;;;;;;5058853;28;20432;-89
2023/04/16 13:01:50;;;;;;;26.05;16.92;;;;;;;;;;5059016;28;20414;-89
2023/04/16 13:04:17;;;;;;;23.58;16.67;;;;;;;;;;5048030;28;20420;-89
2023/04/16 13:06:44;;;;;;;24.77;17.40;;;;;;;;;;5061177;28;20404;-89
2023/04/16 13:09:10;;;;;;;26.08;16.70;;;;;;;;;;5061997;28;20427;-89
2023/04/16 13:11:37;;;;;;;24.50;17.03;;;;;;;;;;5054218;28;20428;-82
2023/04/16 13:14:03;;;;;;;23.20;17.10;;;;;;;;;;5063381;28;20448;-82
2023/04/16 13:16:29;;;;;;;25.02;17.25;;;;;;;;;;5042921;28;20451;-82
2023/04/16 13:18:55;;;;;;;23.35;16.55;;;;;;;;;;5053286;28;20442;-82
2023/04/16 13:21:22;;;;;;;22.88;16.90;;;;;;;;;;5052612;28;20411;-82
2023/04/16 13:23:48;;;;;;;23.25;16.75;;;;;;;;;;5069986;28;20416;-82
2023/04/16 13:26:15;;;;;;;22.87;16.83;;;;;;;;;;5038991;28;20451;-82
2023/04/16 13:28:41;;;;;;;24.23;17.08;;;;;;;;;;5050090;28;20421;-83
2023/04/16 13:31:07;;;;;;;22.13;16.90;;;;;;;;;;5032991;28;20476;-82
2023/04/16 13:33:33;;;;;;;25.23;17.17;;;;;;;;;;5037869;28;20458;-82
2023/04/16 13:35:59;;;;;;;25.17;17.67;;;;;;;;;;5076393;28;20435;-83
2023/04/16 13:38:25;;;;;;;25.40;17.55;;;;;;;;;;5049877;28;20421;-87
2023/04/16 13:40:51;;;;;;;23.92;17.48;;;;;;;;;;5041184;28;20418;-88
2023/04/16 13:43:18;;;;;;;24.98;17.08;;;;;;;;;;5039939;28;20414;-86
2023/04/16 13:45:44;;;;;;;25.50;17.85;;;;;;;;;;5056726;28;20414;-86
2023/04/16 13:48:11;;;;;;;22.98;16.85;;;;;;;;;;5022210;28;20428;-87
2023/04/16 13:50:37;;;;;;;21.85;16.33;;;;;;;;;;5057784;28;20509;-88
2023/04/16 13:53:03;;;;;;;21.67;16.47;;;;;;;;;;5049549;28;20456;-88
2023/04/16 13:55:32;;;;;;;22.52;16.15;;;;;;;;;;5053675;28;20439;-82
2023/04/16 13:57:59;;;;;;;24.58;17.45;;;;;;;;;;5056082;28;20415;-82
2023/04/16 14:00:26;;;;;;;21.85;16.25;;;;;;;;;;5057129;28;20463;-82
2023/04/16 14:02:52;;;;;;;20.80;16.63;;;;;;;;;;5034157;28;20409;-82
2023/04/16 14:05:18;;;;;;;23.52;17.10;;;;;;;;;;5053647;28;20425;-82
2023/04/16 14:07:45;;;;;;;22.52;16.55;;;;;;;;;;5040878;28;20425;-82
2023/04/16 14:10:11;;;;;;;22.65;16.27;;;;;;;;;;5059062;28;20411;-82
2023/04/16 14:12:40;;;;;;;21.63;16.08;;;;;;;;;;5053731;28;20427;-84
2023/04/16 14:15:08;;;;;;;22.15;15.20;;;;;;;;;;5036772;28;20408;-84
2023/04/16 14:17:35;;;;;;;20.73;15.05;;;;;;;;;;5047116;28;20437;-84